FIN8HR EFHK-EDDH
Flight info
| Callsign | FIN8HR |
|---|---|
| Flight time | 1h 52m |
| Altitude | 34000 |
| Route | NUNTO Y369 REKDO DCT KOSKA DCT GIMRU T503 MICOS/N0422F280 N850 BOGMU BOGMU3S |
| Aircraft | A321/M-SDE3FGHIRWY/LB1 |
Departure
| Time | 2026-04-25 14:05 |
|---|---|
| Airport | Helsinki Vantaa Airport (EFHK) |
Arrival
| Time | 2026-04-25 15:57 |
|---|---|
| Airport | Hamburg Helmut Schmidt Airport (EDDH) |
| Time | Latitude | Longitude | Altitude | Speed | Heading |
|---|---|---|---|---|---|
| 2026-04-25 13:46 | 60.31897 | 24.96281 | 166 ft | 0 kts | 137° |
| 2026-04-25 13:59 | 60.31890 | 24.96294 | 166 ft | 4 kts | 139° |
| 2026-04-25 13:59 | 60.31857 | 24.96259 | 167 ft | 9 kts | 256° |
| 2026-04-25 13:59 | 60.31887 | 24.96099 | 170 ft | 16 kts | 311° |
| 2026-04-25 14:00 | 60.31991 | 24.95911 | 173 ft | 24 kts | 318° |
| 2026-04-25 14:00 | 60.32113 | 24.95687 | 173 ft | 24 kts | 318° |
| 2026-04-25 14:00 | 60.32236 | 24.95460 | 175 ft | 23 kts | 316° |
| 2026-04-25 14:00 | 60.32359 | 24.95265 | 177 ft | 22 kts | 338° |
| 2026-04-25 14:01 | 60.32502 | 24.95166 | 180 ft | 21 kts | 342° |
| 2026-04-25 14:01 | 60.32644 | 24.95075 | 180 ft | 21 kts | 342° |
| 2026-04-25 14:01 | 60.32788 | 24.94980 | 177 ft | 23 kts | 342° |
| 2026-04-25 14:01 | 60.32935 | 24.94830 | 177 ft | 23 kts | 319° |
| 2026-04-25 14:02 | 60.33043 | 24.94636 | 183 ft | 16 kts | 317° |
| 2026-04-25 14:02 | 60.33060 | 24.94607 | 188 ft | 0 kts | 318° |
| 2026-04-25 14:03 | 60.33060 | 24.94606 | 188 ft | 0 kts | 318° |
| 2026-04-25 14:03 | 60.33094 | 24.94543 | 195 ft | 11 kts | 316° |
| 2026-04-25 14:03 | 60.33109 | 24.94368 | 204 ft | 17 kts | 238° |
| 2026-04-25 14:04 | 60.33068 | 24.94287 | 187 ft | 0 kts | 226° |
| 2026-04-25 14:04 | 60.33012 | 24.94168 | 197 ft | 43 kts | 227° |
| 2026-04-25 14:04 | 60.32621 | 24.93303 | 181 ft | 120 kts | 228° |
| 2026-04-25 14:04 | 60.31921 | 24.91736 | 237 ft | 174 kts | 228° |
| 2026-04-25 14:05 | 60.31068 | 24.89798 | 751 ft | 192 kts | 229° |
| 2026-04-25 14:05 | 60.30273 | 24.87669 | 1645 ft | 184 kts | 245° |
| 2026-04-25 14:05 | 60.29888 | 24.85279 | 2184 ft | 182 kts | 263° |
| 2026-04-25 14:05 | 60.29915 | 24.82652 | 2369 ft | 201 kts | 278° |
| 2026-04-25 14:06 | 60.30178 | 24.79674 | 2416 ft | 233 kts | 281° |
| 2026-04-25 14:06 | 60.30355 | 24.76229 | 2611 ft | 257 kts | 265° |
| 2026-04-25 14:06 | 60.29901 | 24.72764 | 3478 ft | 255 kts | 252° |
| 2026-04-25 14:06 | 60.29204 | 24.69521 | 4430 ft | 251 kts | 246° |
| 2026-04-25 14:07 | 60.28426 | 24.66376 | 5256 ft | 251 kts | 246° |
| 2026-04-25 14:07 | 60.27648 | 24.63210 | 5989 ft | 253 kts | 247° |
| 2026-04-25 14:07 | 60.26886 | 24.59977 | 6667 ft | 257 kts | 247° |
| 2026-04-25 14:07 | 60.26149 | 24.56691 | 7394 ft | 259 kts | 248° |
| 2026-04-25 14:08 | 60.25425 | 24.53343 | 8066 ft | 263 kts | 248° |
| 2026-04-25 14:08 | 60.24704 | 24.49932 | 8759 ft | 266 kts | 249° |
| 2026-04-25 14:08 | 60.23909 | 24.46622 | 9476 ft | 268 kts | 243° |
| 2026-04-25 14:08 | 60.22992 | 24.43221 | 9728 ft | 287 kts | 243° |
| 2026-04-25 14:09 | 60.22007 | 24.39545 | 9866 ft | 308 kts | 243° |
| 2026-04-25 14:09 | 60.20967 | 24.35669 | 10242 ft | 319 kts | 243° |
| 2026-04-25 14:09 | 60.19905 | 24.31723 | 10856 ft | 323 kts | 243° |
| 2026-04-25 14:09 | 60.19195 | 24.29085 | 11276 ft | 325 kts | 243° |
| 2026-04-25 14:10 | 60.17750 | 24.23721 | 12155 ft | 328 kts | 242° |
| 2026-04-25 14:10 | 60.16657 | 24.19687 | 12815 ft | 330 kts | 242° |
| 2026-04-25 14:10 | 60.15568 | 24.15684 | 13413 ft | 332 kts | 242° |
| 2026-04-25 14:10 | 60.14457 | 24.11609 | 14037 ft | 334 kts | 242° |
| 2026-04-25 14:11 | 60.13336 | 24.07520 | 14644 ft | 336 kts | 242° |
| 2026-04-25 14:11 | 60.12208 | 24.03408 | 15268 ft | 337 kts | 242° |
| 2026-04-25 14:11 | 60.11075 | 23.99280 | 15890 ft | 339 kts | 242° |
| 2026-04-25 14:11 | 60.09937 | 23.95131 | 16516 ft | 341 kts | 241° |
| 2026-04-25 14:12 | 60.08791 | 23.90953 | 17128 ft | 344 kts | 241° |
| 2026-04-25 14:12 | 60.07643 | 23.86739 | 17704 ft | 346 kts | 242° |
| 2026-04-25 14:12 | 60.06513 | 23.82458 | 18200 ft | 348 kts | 242° |
| 2026-04-25 14:12 | 60.05413 | 23.78214 | 18749 ft | 349 kts | 243° |
| 2026-04-25 14:13 | 60.04294 | 23.73886 | 19272 ft | 351 kts | 243° |
| 2026-04-25 14:13 | 60.03164 | 23.69532 | 19821 ft | 354 kts | 242° |
| 2026-04-25 14:13 | 60.02022 | 23.65166 | 20322 ft | 356 kts | 242° |
| 2026-04-25 14:13 | 60.00864 | 23.60769 | 20825 ft | 358 kts | 242° |
| 2026-04-25 14:14 | 59.99694 | 23.56347 | 21314 ft | 361 kts | 242° |
| 2026-04-25 14:14 | 59.98515 | 23.51900 | 21792 ft | 363 kts | 242° |
| 2026-04-25 14:14 | 59.97345 | 23.47491 | 22238 ft | 366 kts | 242° |
| 2026-04-25 14:14 | 59.96147 | 23.42993 | 22694 ft | 368 kts | 242° |
| 2026-04-25 14:15 | 59.94939 | 23.38467 | 23108 ft | 371 kts | 242° |
| 2026-04-25 14:15 | 59.94120 | 23.35397 | 23342 ft | 372 kts | 242° |
| 2026-04-25 14:15 | 59.92498 | 23.29339 | 23802 ft | 376 kts | 242° |
| 2026-04-25 14:15 | 59.91260 | 23.24730 | 24131 ft | 378 kts | 242° |
| 2026-04-25 14:16 | 59.90012 | 23.20095 | 24458 ft | 381 kts | 242° |
| 2026-04-25 14:16 | 59.88759 | 23.15438 | 24783 ft | 383 kts | 242° |
| 2026-04-25 14:16 | 59.87494 | 23.10741 | 25111 ft | 385 kts | 243° |
| 2026-04-25 14:16 | 59.86244 | 23.06108 | 25466 ft | 386 kts | 243° |
| 2026-04-25 14:17 | 59.84970 | 23.01390 | 25786 ft | 388 kts | 243° |
| 2026-04-25 14:17 | 59.83685 | 22.96642 | 26088 ft | 391 kts | 243° |
| 2026-04-25 14:17 | 59.82392 | 22.91879 | 26386 ft | 394 kts | 243° |
| 2026-04-25 14:17 | 59.81081 | 22.87063 | 26627 ft | 398 kts | 243° |
| 2026-04-25 14:18 | 59.79756 | 22.82212 | 26904 ft | 400 kts | 243° |
| 2026-04-25 14:18 | 59.78424 | 22.77352 | 27188 ft | 403 kts | 243° |
| 2026-04-25 14:18 | 59.77079 | 22.72454 | 27463 ft | 405 kts | 243° |
| 2026-04-25 14:18 | 59.75728 | 22.67543 | 27736 ft | 407 kts | 243° |
| 2026-04-25 14:19 | 59.74387 | 22.62674 | 27995 ft | 409 kts | 243° |
| 2026-04-25 14:19 | 59.73018 | 22.57713 | 28269 ft | 411 kts | 243° |
| 2026-04-25 14:19 | 59.71644 | 22.52738 | 28534 ft | 413 kts | 243° |
| 2026-04-25 14:19 | 59.70258 | 22.47739 | 28787 ft | 415 kts | 243° |
| 2026-04-25 14:20 | 59.68864 | 22.42717 | 29017 ft | 417 kts | 243° |
| 2026-04-25 14:20 | 59.67938 | 22.39388 | 29201 ft | 418 kts | 243° |
| 2026-04-25 14:20 | 59.66052 | 22.32622 | 29537 ft | 421 kts | 243° |
| 2026-04-25 14:20 | 59.64649 | 22.27602 | 29731 ft | 423 kts | 243° |
| 2026-04-25 14:21 | 59.63221 | 22.22513 | 29981 ft | 424 kts | 243° |
| 2026-04-25 14:21 | 59.61790 | 22.17423 | 30243 ft | 424 kts | 243° |
| 2026-04-25 14:21 | 59.60353 | 22.12320 | 30481 ft | 425 kts | 243° |
| 2026-04-25 14:21 | 59.58913 | 22.07222 | 30715 ft | 426 kts | 243° |
| 2026-04-25 14:22 | 59.57465 | 22.02113 | 30961 ft | 427 kts | 243° |
| 2026-04-25 14:22 | 59.56012 | 21.96997 | 31188 ft | 428 kts | 243° |
| 2026-04-25 14:22 | 59.54553 | 21.91857 | 31370 ft | 430 kts | 243° |
| 2026-04-25 14:22 | 59.53091 | 21.86714 | 31581 ft | 431 kts | 243° |
| 2026-04-25 14:23 | 59.51644 | 21.81631 | 31798 ft | 432 kts | 243° |
| 2026-04-25 14:23 | 59.50175 | 21.76484 | 32051 ft | 431 kts | 243° |
| 2026-04-25 14:23 | 59.48703 | 21.71352 | 32328 ft | 431 kts | 243° |
| 2026-04-25 14:23 | 59.47227 | 21.66225 | 32564 ft | 431 kts | 243° |
| 2026-04-25 14:24 | 59.45744 | 21.61099 | 32786 ft | 431 kts | 243° |
| 2026-04-25 14:24 | 59.44260 | 21.55972 | 32994 ft | 432 kts | 243° |
| 2026-04-25 14:24 | 59.42775 | 21.50844 | 33216 ft | 432 kts | 243° |
| 2026-04-25 14:24 | 59.41288 | 21.45699 | 33427 ft | 433 kts | 243° |
| 2026-04-25 14:25 | 59.39821 | 21.40627 | 33525 ft | 432 kts | 243° |
| 2026-04-25 14:25 | 59.36856 | 21.30436 | 33532 ft | 429 kts | 243° |
| 2026-04-25 14:26 | 59.33893 | 21.20295 | 33537 ft | 429 kts | 243° |
| 2026-04-25 14:26 | 59.30921 | 21.10173 | 33523 ft | 428 kts | 243° |
| 2026-04-25 14:27 | 59.27969 | 21.00149 | 33553 ft | 428 kts | 243° |
| 2026-04-25 14:27 | 59.24988 | 20.90063 | 33555 ft | 429 kts | 243° |
| 2026-04-25 14:28 | 59.21983 | 20.79985 | 33558 ft | 429 kts | 243° |
| 2026-04-25 14:28 | 59.18968 | 20.69924 | 33574 ft | 430 kts | 243° |
| 2026-04-25 14:29 | 59.15436 | 20.60550 | 33587 ft | 433 kts | 236° |
| 2026-04-25 14:29 | 59.11709 | 20.51314 | 33575 ft | 433 kts | 236° |
| 2026-04-25 14:30 | 59.07983 | 20.42117 | 33600 ft | 432 kts | 236° |
| 2026-04-25 14:30 | 59.02401 | 20.28416 | 33610 ft | 431 kts | 236° |
| 2026-04-25 14:31 | 58.98706 | 20.19384 | 33620 ft | 430 kts | 236° |
| 2026-04-25 14:31 | 58.94981 | 20.10318 | 33623 ft | 430 kts | 236° |
| 2026-04-25 14:32 | 58.91253 | 20.01282 | 33631 ft | 429 kts | 235° |
| 2026-04-25 14:32 | 58.87529 | 19.92289 | 33633 ft | 427 kts | 235° |
| 2026-04-25 14:33 | 58.83844 | 19.83424 | 33649 ft | 425 kts | 235° |
| 2026-04-25 14:33 | 58.80145 | 19.74560 | 33647 ft | 423 kts | 235° |
| 2026-04-25 14:34 | 58.76451 | 19.65735 | 33634 ft | 422 kts | 235° |
| 2026-04-25 14:34 | 58.72760 | 19.56940 | 33634 ft | 422 kts | 235° |
| 2026-04-25 14:35 | 58.69087 | 19.48231 | 33599 ft | 422 kts | 235° |
| 2026-04-25 14:35 | 58.65385 | 19.39489 | 33625 ft | 422 kts | 235° |
| 2026-04-25 14:36 | 58.61670 | 19.30758 | 33628 ft | 422 kts | 235° |
| 2026-04-25 14:36 | 58.57952 | 19.22038 | 33636 ft | 422 kts | 235° |
| 2026-04-25 14:37 | 58.54252 | 19.13391 | 33645 ft | 423 kts | 234° |
| 2026-04-25 14:37 | 58.50514 | 19.04702 | 33645 ft | 423 kts | 234° |
| 2026-04-25 14:38 | 58.46772 | 18.96015 | 33589 ft | 425 kts | 234° |
| 2026-04-25 14:38 | 58.42993 | 18.87269 | 33613 ft | 428 kts | 234° |
| 2026-04-25 14:39 | 58.39220 | 18.78595 | 33631 ft | 428 kts | 234° |
| 2026-04-25 14:39 | 58.35411 | 18.69863 | 33636 ft | 429 kts | 234° |
| 2026-04-25 14:40 | 58.31591 | 18.61148 | 33641 ft | 429 kts | 234° |
| 2026-04-25 14:40 | 58.27769 | 18.52450 | 33639 ft | 429 kts | 234° |
| 2026-04-25 14:41 | 58.23966 | 18.43823 | 33619 ft | 428 kts | 234° |
| 2026-04-25 14:41 | 58.20136 | 18.35175 | 33637 ft | 428 kts | 234° |
| 2026-04-25 14:42 | 58.16955 | 18.28011 | 33637 ft | 427 kts | 234° |
| 2026-04-25 14:42 | 58.12478 | 18.17973 | 33641 ft | 427 kts | 234° |
| 2026-04-25 14:43 | 58.08667 | 18.09468 | 33643 ft | 426 kts | 234° |
| 2026-04-25 14:43 | 58.04831 | 18.00931 | 33637 ft | 426 kts | 234° |
| 2026-04-25 14:44 | 58.00992 | 17.92418 | 33612 ft | 426 kts | 234° |
| 2026-04-25 14:44 | 57.97146 | 17.83913 | 33624 ft | 426 kts | 234° |
| 2026-04-25 14:45 | 57.93327 | 17.75499 | 33629 ft | 426 kts | 234° |
| 2026-04-25 14:45 | 57.89472 | 17.67036 | 33632 ft | 426 kts | 234° |
| 2026-04-25 14:46 | 57.85618 | 17.58600 | 33635 ft | 426 kts | 234° |
| 2026-04-25 14:46 | 57.81751 | 17.50173 | 33607 ft | 426 kts | 234° |
| 2026-04-25 14:47 | 57.78535 | 17.43195 | 33614 ft | 425 kts | 234° |
| 2026-04-25 14:47 | 57.74037 | 17.33464 | 33625 ft | 425 kts | 234° |
| 2026-04-25 14:48 | 57.70158 | 17.25109 | 33639 ft | 425 kts | 234° |
| 2026-04-25 14:48 | 57.66279 | 17.16768 | 33630 ft | 425 kts | 234° |
| 2026-04-25 14:49 | 57.62422 | 17.08511 | 33638 ft | 425 kts | 234° |
| 2026-04-25 14:49 | 57.58526 | 17.00195 | 33633 ft | 426 kts | 234° |
| 2026-04-25 14:50 | 57.54619 | 16.91897 | 33636 ft | 426 kts | 234° |
| 2026-04-25 14:50 | 57.50704 | 16.83613 | 33637 ft | 426 kts | 234° |
| 2026-04-25 14:51 | 57.46808 | 16.75401 | 33646 ft | 426 kts | 234° |
| 2026-04-25 14:51 | 57.42878 | 16.67149 | 33644 ft | 427 kts | 234° |
| 2026-04-25 14:52 | 57.38947 | 16.58900 | 33644 ft | 427 kts | 234° |
| 2026-04-25 14:52 | 57.35673 | 16.52070 | 33634 ft | 426 kts | 234° |
| 2026-04-25 14:53 | 57.31075 | 16.42503 | 33646 ft | 425 kts | 234° |
| 2026-04-25 14:53 | 57.27167 | 16.34396 | 33659 ft | 425 kts | 234° |
| 2026-04-25 14:54 | 57.23228 | 16.26257 | 33662 ft | 425 kts | 234° |
| 2026-04-25 14:54 | 57.19292 | 16.18143 | 33645 ft | 425 kts | 234° |
| 2026-04-25 14:55 | 57.15342 | 16.10031 | 33600 ft | 425 kts | 234° |
| 2026-04-25 14:55 | 57.11415 | 16.02001 | 33640 ft | 425 kts | 234° |
| 2026-04-25 14:56 | 57.07430 | 15.93966 | 33650 ft | 426 kts | 233° |
| 2026-04-25 14:56 | 57.03430 | 15.85984 | 33652 ft | 424 kts | 234° |
| 2026-04-25 14:57 | 56.99508 | 15.77890 | 33649 ft | 424 kts | 234° |
| 2026-04-25 14:57 | 56.95591 | 15.69891 | 33652 ft | 425 kts | 234° |
| 2026-04-25 14:58 | 56.91612 | 15.61899 | 33643 ft | 424 kts | 234° |
| 2026-04-25 14:58 | 56.87627 | 15.53942 | 33665 ft | 424 kts | 234° |
| 2026-04-25 14:59 | 56.83645 | 15.45999 | 33674 ft | 424 kts | 234° |
| 2026-04-25 14:59 | 56.79695 | 15.38114 | 33677 ft | 423 kts | 234° |
| 2026-04-25 15:00 | 56.75707 | 15.30209 | 33657 ft | 424 kts | 234° |
| 2026-04-25 15:00 | 56.71696 | 15.22291 | 33610 ft | 426 kts | 234° |
| 2026-04-25 15:01 | 56.67669 | 15.14368 | 33661 ft | 427 kts | 234° |
| 2026-04-25 15:01 | 56.63632 | 15.06454 | 33675 ft | 427 kts | 234° |
| 2026-04-25 15:02 | 56.59615 | 14.98602 | 33699 ft | 427 kts | 234° |
| 2026-04-25 15:02 | 56.55571 | 14.90709 | 33695 ft | 427 kts | 234° |
| 2026-04-25 15:03 | 56.51522 | 14.82826 | 33695 ft | 427 kts | 234° |
| 2026-04-25 15:03 | 56.47469 | 14.74968 | 33668 ft | 427 kts | 234° |
| 2026-04-25 15:04 | 56.43440 | 14.67214 | 33698 ft | 425 kts | 234° |
| 2026-04-25 15:04 | 56.39393 | 14.59423 | 33720 ft | 425 kts | 234° |
| 2026-04-25 15:05 | 56.35353 | 14.51665 | 33715 ft | 424 kts | 234° |
| 2026-04-25 15:06 | 56.29290 | 14.40061 | 33683 ft | 425 kts | 234° |
| 2026-04-25 15:06 | 56.25248 | 14.32373 | 33701 ft | 426 kts | 235° |
| 2026-04-25 15:07 | 56.21170 | 14.24653 | 33738 ft | 426 kts | 234° |
| 2026-04-25 15:07 | 56.17085 | 14.16944 | 33753 ft | 426 kts | 234° |
| 2026-04-25 15:08 | 56.13005 | 14.09261 | 33766 ft | 425 kts | 234° |
| 2026-04-25 15:08 | 56.08948 | 14.01644 | 33750 ft | 425 kts | 234° |
| 2026-04-25 15:09 | 56.04860 | 13.93998 | 33695 ft | 425 kts | 235° |
| 2026-04-25 15:09 | 55.98770 | 13.82666 | 33754 ft | 420 kts | 235° |
| 2026-04-25 15:10 | 55.94721 | 13.75144 | 33775 ft | 420 kts | 235° |
| 2026-04-25 15:11 | 55.88666 | 13.63945 | 33767 ft | 421 kts | 236° |
| 2026-04-25 15:11 | 55.84587 | 13.56437 | 33767 ft | 423 kts | 235° |
| 2026-04-25 15:12 | 55.78434 | 13.45158 | 33801 ft | 424 kts | 236° |
| 2026-04-25 15:12 | 55.75718 | 13.40181 | 33800 ft | 424 kts | 236° |
| 2026-04-25 15:13 | 55.68185 | 13.26493 | 33828 ft | 423 kts | 236° |
| 2026-04-25 15:14 | 55.64071 | 13.19055 | 33827 ft | 423 kts | 236° |
| 2026-04-25 15:14 | 55.59956 | 13.11616 | 33795 ft | 423 kts | 237° |
| 2026-04-25 15:15 | 55.55875 | 13.04256 | 33826 ft | 422 kts | 237° |
| 2026-04-25 15:15 | 55.51758 | 12.96874 | 33838 ft | 421 kts | 237° |
| 2026-04-25 15:16 | 55.47645 | 12.89510 | 33845 ft | 421 kts | 237° |
| 2026-04-25 15:16 | 55.41462 | 12.78488 | 33800 ft | 423 kts | 237° |
| 2026-04-25 15:17 | 55.35245 | 12.67502 | 33822 ft | 425 kts | 237° |
| 2026-04-25 15:18 | 55.31072 | 12.60131 | 33837 ft | 426 kts | 237° |
| 2026-04-25 15:18 | 55.24802 | 12.49063 | 33854 ft | 427 kts | 237° |
| 2026-04-25 15:19 | 55.22021 | 12.44192 | 33857 ft | 427 kts | 237° |
| 2026-04-25 15:19 | 55.16417 | 12.34415 | 33869 ft | 427 kts | 237° |
| 2026-04-25 15:20 | 55.12221 | 12.27111 | 33848 ft | 425 kts | 237° |
| 2026-04-25 15:20 | 55.08035 | 12.19835 | 33870 ft | 425 kts | 237° |
| 2026-04-25 15:21 | 55.03869 | 12.12620 | 33879 ft | 425 kts | 237° |
| 2026-04-25 15:21 | 54.99652 | 12.05371 | 33867 ft | 428 kts | 237° |
| 2026-04-25 15:22 | 54.95404 | 11.98104 | 33928 ft | 428 kts | 237° |
| 2026-04-25 15:22 | 54.91184 | 11.90818 | 33850 ft | 428 kts | 237° |
| 2026-04-25 15:23 | 54.86964 | 11.83573 | 33866 ft | 431 kts | 236° |
| 2026-04-25 15:23 | 54.84826 | 11.79923 | 33723 ft | 432 kts | 236° |
| 2026-04-25 15:23 | 54.82674 | 11.76254 | 32917 ft | 434 kts | 236° |
| 2026-04-25 15:24 | 54.80526 | 11.72623 | 31907 ft | 428 kts | 236° |
| 2026-04-25 15:24 | 54.78412 | 11.69068 | 30880 ft | 420 kts | 236° |
| 2026-04-25 15:24 | 54.76333 | 11.65585 | 30087 ft | 408 kts | 236° |
| 2026-04-25 15:24 | 54.75646 | 11.64439 | 29977 ft | 400 kts | 236° |
| 2026-04-25 15:25 | 54.72437 | 11.59095 | 28805 ft | 377 kts | 237° |
| 2026-04-25 15:25 | 54.70578 | 11.55954 | 27796 ft | 370 kts | 237° |
| 2026-04-25 15:25 | 54.68780 | 11.52900 | 26905 ft | 365 kts | 237° |
| 2026-04-25 15:25 | 54.66990 | 11.49861 | 26257 ft | 354 kts | 237° |
| 2026-04-25 15:26 | 54.65261 | 11.46949 | 25869 ft | 344 kts | 237° |
| 2026-04-25 15:26 | 54.63577 | 11.44121 | 25787 ft | 332 kts | 238° |
| 2026-04-25 15:26 | 54.61947 | 11.41398 | 25722 ft | 322 kts | 238° |
| 2026-04-25 15:26 | 54.60335 | 11.38685 | 25653 ft | 325 kts | 238° |
| 2026-04-25 15:27 | 54.58716 | 11.35953 | 25580 ft | 326 kts | 238° |
| 2026-04-25 15:27 | 54.57086 | 11.33206 | 25477 ft | 329 kts | 238° |
| 2026-04-25 15:27 | 54.53435 | 11.28200 | 25293 ft | 344 kts | 229° |
| 2026-04-25 15:28 | 54.51479 | 11.25826 | 24954 ft | 343 kts | 229° |
| 2026-04-25 15:28 | 54.49534 | 11.23476 | 24564 ft | 341 kts | 229° |
| 2026-04-25 15:28 | 54.47603 | 11.21139 | 24132 ft | 338 kts | 229° |
| 2026-04-25 15:28 | 54.45683 | 11.18820 | 23791 ft | 336 kts | 228° |
| 2026-04-25 15:29 | 54.43776 | 11.16513 | 23379 ft | 335 kts | 229° |
| 2026-04-25 15:29 | 54.41828 | 11.14328 | 23101 ft | 339 kts | 219° |
| 2026-04-25 15:29 | 54.39677 | 11.12586 | 23016 ft | 343 kts | 218° |
| 2026-04-25 15:29 | 54.37516 | 11.10851 | 22940 ft | 344 kts | 218° |
| 2026-04-25 15:30 | 54.36059 | 11.09671 | 22772 ft | 358 kts | 218° |
| 2026-04-25 15:30 | 54.32981 | 11.07158 | 22429 ft | 377 kts | 217° |
| 2026-04-25 15:30 | 54.30593 | 11.05243 | 22154 ft | 380 kts | 217° |
| 2026-04-25 15:30 | 54.28194 | 11.03339 | 21884 ft | 379 kts | 217° |
| 2026-04-25 15:31 | 54.25812 | 11.01425 | 21624 ft | 378 kts | 217° |
| 2026-04-25 15:31 | 54.23444 | 10.99501 | 21304 ft | 376 kts | 217° |
| 2026-04-25 15:31 | 54.21087 | 10.97577 | 21049 ft | 375 kts | 217° |
| 2026-04-25 15:31 | 54.18745 | 10.95663 | 20795 ft | 373 kts | 217° |
| 2026-04-25 15:32 | 54.16409 | 10.93755 | 20545 ft | 372 kts | 217° |
| 2026-04-25 15:32 | 54.14075 | 10.91852 | 20308 ft | 370 kts | 217° |
| 2026-04-25 15:32 | 54.11754 | 10.89963 | 20061 ft | 369 kts | 217° |
| 2026-04-25 15:33 | 54.07167 | 10.86233 | 19577 ft | 366 kts | 217° |
| 2026-04-25 15:33 | 54.04875 | 10.84373 | 19342 ft | 365 kts | 217° |
| 2026-04-25 15:33 | 54.02586 | 10.82520 | 19109 ft | 364 kts | 216° |
| 2026-04-25 15:33 | 54.00305 | 10.80677 | 18847 ft | 362 kts | 216° |
| 2026-04-25 15:34 | 53.98032 | 10.78842 | 18603 ft | 361 kts | 216° |
| 2026-04-25 15:34 | 53.95762 | 10.77011 | 18372 ft | 360 kts | 216° |
| 2026-04-25 15:34 | 53.93502 | 10.75189 | 18120 ft | 359 kts | 216° |
| 2026-04-25 15:34 | 53.92743 | 10.74578 | 18014 ft | 358 kts | 216° |
| 2026-04-25 15:35 | 53.86779 | 10.69790 | 17306 ft | 354 kts | 216° |
| 2026-04-25 15:35 | 53.84551 | 10.68013 | 17048 ft | 353 kts | 215° |
| 2026-04-25 15:35 | 53.82362 | 10.66282 | 16794 ft | 350 kts | 215° |
| 2026-04-25 15:36 | 53.78040 | 10.62905 | 16269 ft | 334 kts | 215° |
| 2026-04-25 15:36 | 53.75953 | 10.61274 | 15966 ft | 327 kts | 215° |
| 2026-04-25 15:36 | 53.73908 | 10.59666 | 15712 ft | 322 kts | 215° |
| 2026-04-25 15:37 | 53.71890 | 10.58072 | 15470 ft | 319 kts | 215° |
| 2026-04-25 15:37 | 53.69883 | 10.56488 | 15224 ft | 318 kts | 215° |
| 2026-04-25 15:37 | 53.67885 | 10.54912 | 14981 ft | 316 kts | 215° |
| 2026-04-25 15:37 | 53.65900 | 10.53347 | 14741 ft | 315 kts | 215° |
| 2026-04-25 15:38 | 53.63922 | 10.51792 | 14503 ft | 313 kts | 215° |
| 2026-04-25 15:38 | 53.62059 | 10.50016 | 14268 ft | 301 kts | 227° |
| 2026-04-25 15:38 | 53.60563 | 10.47681 | 14031 ft | 287 kts | 240° |
| 2026-04-25 15:38 | 53.59474 | 10.45001 | 13786 ft | 276 kts | 251° |
| 2026-04-25 15:39 | 53.58613 | 10.42129 | 13540 ft | 274 kts | 252° |
| 2026-04-25 15:39 | 53.57756 | 10.39287 | 13267 ft | 270 kts | 252° |
| 2026-04-25 15:39 | 53.56899 | 10.36471 | 12993 ft | 264 kts | 252° |
| 2026-04-25 15:39 | 53.56069 | 10.33747 | 12737 ft | 259 kts | 252° |
| 2026-04-25 15:40 | 53.55265 | 10.31106 | 12616 ft | 249 kts | 252° |
| 2026-04-25 15:40 | 53.54999 | 10.30232 | 12532 ft | 246 kts | 252° |
| 2026-04-25 15:40 | 53.53319 | 10.26465 | 12223 ft | 258 kts | 221° |
| 2026-04-25 15:40 | 53.51524 | 10.25658 | 11901 ft | 284 kts | 185° |
| 2026-04-25 15:41 | 53.49563 | 10.26523 | 11529 ft | 299 kts | 163° |
| 2026-04-25 15:41 | 53.47664 | 10.28004 | 11201 ft | 303 kts | 158° |
| 2026-04-25 15:41 | 53.45801 | 10.29676 | 10925 ft | 303 kts | 156° |
| 2026-04-25 15:41 | 53.43963 | 10.31385 | 10629 ft | 302 kts | 156° |
| 2026-04-25 15:42 | 53.42126 | 10.33071 | 10333 ft | 300 kts | 157° |
| 2026-04-25 15:42 | 53.40285 | 10.34714 | 10033 ft | 299 kts | 158° |
| 2026-04-25 15:42 | 53.38441 | 10.36317 | 9699 ft | 298 kts | 159° |
| 2026-04-25 15:42 | 53.36624 | 10.37871 | 9378 ft | 296 kts | 159° |
| 2026-04-25 15:43 | 53.34794 | 10.39427 | 9061 ft | 294 kts | 159° |
| 2026-04-25 15:43 | 53.32974 | 10.40961 | 8752 ft | 292 kts | 160° |
| 2026-04-25 15:43 | 53.31162 | 10.42482 | 8459 ft | 291 kts | 159° |
| 2026-04-25 15:43 | 53.29361 | 10.43998 | 8158 ft | 289 kts | 159° |
| 2026-04-25 15:44 | 53.27574 | 10.45490 | 7825 ft | 285 kts | 162° |
| 2026-04-25 15:44 | 53.25721 | 10.46277 | 7541 ft | 267 kts | 188° |
| 2026-04-25 15:44 | 53.24529 | 10.46133 | 7312 ft | 254 kts | 203° |
| 2026-04-25 15:44 | 53.22957 | 10.45086 | 6997 ft | 236 kts | 225° |
| 2026-04-25 15:45 | 53.21775 | 10.43333 | 6662 ft | 221 kts | 242° |
| 2026-04-25 15:45 | 53.21010 | 10.41193 | 6320 ft | 213 kts | 252° |
| 2026-04-25 15:45 | 53.20514 | 10.38927 | 5963 ft | 202 kts | 272° |
| 2026-04-25 15:45 | 53.20581 | 10.37419 | 5731 ft | 195 kts | 290° |
| 2026-04-25 15:46 | 53.21603 | 10.35027 | 5247 ft | 195 kts | 323° |
| 2026-04-25 15:46 | 53.22816 | 10.33955 | 4888 ft | 198 kts | 328° |
| 2026-04-25 15:46 | 53.24046 | 10.32921 | 4530 ft | 198 kts | 328° |
| 2026-04-25 15:46 | 53.25281 | 10.31879 | 4129 ft | 200 kts | 328° |
| 2026-04-25 15:47 | 53.26513 | 10.30840 | 3745 ft | 202 kts | 328° |
| 2026-04-25 15:47 | 53.27769 | 10.29777 | 3377 ft | 203 kts | 329° |
| 2026-04-25 15:47 | 53.29033 | 10.28707 | 3072 ft | 201 kts | 329° |
| 2026-04-25 15:47 | 53.30288 | 10.27644 | 3058 ft | 203 kts | 329° |
| 2026-04-25 15:48 | 53.31542 | 10.26580 | 3051 ft | 201 kts | 329° |
| 2026-04-25 15:48 | 53.32788 | 10.25523 | 3059 ft | 201 kts | 329° |
| 2026-04-25 15:48 | 53.34035 | 10.24464 | 3052 ft | 201 kts | 329° |
| 2026-04-25 15:48 | 53.35282 | 10.23405 | 3058 ft | 201 kts | 329° |
| 2026-04-25 15:49 | 53.36513 | 10.22360 | 3051 ft | 191 kts | 329° |
| 2026-04-25 15:49 | 53.37672 | 10.21379 | 3086 ft | 184 kts | 329° |
| 2026-04-25 15:49 | 53.38794 | 10.20421 | 3049 ft | 175 kts | 329° |
| 2026-04-25 15:49 | 53.39807 | 10.19560 | 3041 ft | 156 kts | 329° |
| 2026-04-25 15:50 | 53.40747 | 10.18757 | 3043 ft | 152 kts | 329° |
| 2026-04-25 15:50 | 53.41679 | 10.17957 | 3046 ft | 150 kts | 328° |
| 2026-04-25 15:50 | 53.42613 | 10.17157 | 3050 ft | 153 kts | 328° |
| 2026-04-25 15:50 | 53.43549 | 10.16358 | 3061 ft | 149 kts | 328° |
| 2026-04-25 15:51 | 53.44468 | 10.15571 | 3084 ft | 149 kts | 328° |
| 2026-04-25 15:51 | 53.45082 | 10.15045 | 3068 ft | 149 kts | 328° |
| 2026-04-25 15:51 | 53.46315 | 10.13988 | 3060 ft | 147 kts | 328° |
| 2026-04-25 15:51 | 53.47192 | 10.13237 | 3052 ft | 138 kts | 327° |
| 2026-04-25 15:52 | 53.48041 | 10.12509 | 3056 ft | 136 kts | 327° |
| 2026-04-25 15:52 | 53.48867 | 10.11799 | 3060 ft | 135 kts | 327° |
| 2026-04-25 15:52 | 53.49698 | 10.11085 | 3022 ft | 133 kts | 327° |
| 2026-04-25 15:52 | 53.50500 | 10.10401 | 2809 ft | 127 kts | 328° |
| 2026-04-25 15:53 | 53.51282 | 10.09729 | 2628 ft | 125 kts | 327° |
| 2026-04-25 15:53 | 53.52057 | 10.09062 | 2460 ft | 125 kts | 328° |
| 2026-04-25 15:53 | 53.52830 | 10.08397 | 2289 ft | 125 kts | 328° |
| 2026-04-25 15:53 | 53.53601 | 10.07731 | 2127 ft | 124 kts | 327° |
| 2026-04-25 15:54 | 53.54370 | 10.07069 | 1955 ft | 124 kts | 327° |
| 2026-04-25 15:54 | 53.55135 | 10.06411 | 1791 ft | 124 kts | 327° |
| 2026-04-25 15:54 | 53.55894 | 10.05752 | 1664 ft | 122 kts | 327° |
| 2026-04-25 15:54 | 53.56647 | 10.05100 | 1475 ft | 122 kts | 326° |
| 2026-04-25 15:55 | 53.57380 | 10.04405 | 1206 ft | 120 kts | 325° |
| 2026-04-25 15:55 | 53.58116 | 10.03710 | 1081 ft | 121 kts | 326° |
| 2026-04-25 15:55 | 53.58892 | 10.03117 | 1026 ft | 124 kts | 328° |
| 2026-04-25 15:55 | 53.59696 | 10.02518 | 737 ft | 126 kts | 326° |
| 2026-04-25 15:56 | 53.60474 | 10.01843 | 653 ft | 125 kts | 325° |
| 2026-04-25 15:56 | 53.61237 | 10.01142 | 455 ft | 124 kts | 324° |
| 2026-04-25 15:56 | 53.62000 | 10.00462 | 309 ft | 124 kts | 327° |
| 2026-04-25 15:56 | 53.62793 | 9.99775 | 108 ft | 127 kts | 325° |
| 2026-04-25 15:57 | 53.63583 | 9.99125 | 49 ft | 119 kts | 329° |
| 2026-04-25 15:57 | 53.64128 | 9.98630 | 53 ft | 66 kts | 333° |
| 2026-04-25 15:57 | 53.64468 | 9.98384 | 56 ft | 43 kts | 348° |
| 2026-04-25 15:57 | 53.64663 | 9.98391 | 55 ft | 7 kts | 17° |
| 2026-04-25 15:58 | 53.64700 | 9.98459 | 53 ft | 9 kts | 85° |
| 2026-04-25 15:58 | 53.64654 | 9.98538 | 53 ft | 10 kts | 150° |
| 2026-04-25 15:58 | 53.64585 | 9.98597 | 52 ft | 12 kts | 151° |
| 2026-04-25 15:58 | 53.64506 | 9.98667 | 51 ft | 14 kts | 153° |
| 2026-04-25 15:59 | 53.64417 | 9.98744 | 51 ft | 15 kts | 153° |
| 2026-04-25 15:59 | 53.64321 | 9.98827 | 50 ft | 16 kts | 153° |
| 2026-04-25 15:59 | 53.64215 | 9.98919 | 48 ft | 18 kts | 153° |
| 2026-04-25 15:59 | 53.64101 | 9.99017 | 47 ft | 19 kts | 153° |
| 2026-04-25 16:00 | 53.63981 | 9.99122 | 47 ft | 20 kts | 152° |
| 2026-04-25 16:00 | 53.63899 | 9.99192 | 48 ft | 20 kts | 154° |
| 2026-04-25 16:00 | 53.63747 | 9.99389 | 48 ft | 21 kts | 129° |
| 2026-04-25 16:00 | 53.63658 | 9.99592 | 49 ft | 22 kts | 126° |
| 2026-04-25 16:01 | 53.63569 | 9.99797 | 50 ft | 21 kts | 126° |
| 2026-04-25 16:01 | 53.63480 | 10.00003 | 49 ft | 23 kts | 126° |
| 2026-04-25 16:01 | 53.63417 | 10.00146 | 47 ft | 0 kts | 150° |
| 2026-04-25 16:01 | 53.63395 | 10.00156 | 48 ft | 7 kts | 166° |
| 2026-04-25 16:02 | 53.63372 | 10.00211 | 48 ft | 6 kts | 98° |
| 2026-04-25 16:02 | 53.63371 | 10.00296 | 48 ft | 8 kts | 88° |
| 2026-04-25 16:02 | 53.63371 | 10.00311 | 48 ft | 1 kts | 87° |
| 2026-04-25 16:02 | 53.63372 | 10.00332 | 48 ft | 0 kts | 86° |
| 2026-04-25 16:03 | 53.63372 | 10.00339 | 48 ft | 0 kts | 85° |